sensor_id;sensor_type;location;lat;lon;timestamp;pressure;altitude;pressure_sealevel;temperature;humidity
74270;BME280;62754;48.252;11.654;2022-09-09T00:00:59;95928.84;;;14.24;80.03
74270;BME280;62754;48.252;11.654;2022-09-09T00:03:34;95932.63;;;14.12;80.29
74270;BME280;62754;48.252;11.654;2022-09-09T00:06:18;95934.97;;;14.06;80.24
74270;BME280;62754;48.252;11.654;2022-09-09T00:09:27;95933.41;;;13.95;80.71
74270;BME280;62754;48.252;11.654;2022-09-09T00:11:54;95932.88;;;13.74;81.97
74270;BME280;62754;48.252;11.654;2022-09-09T00:14:27;95941.75;;;13.71;82.31
74270;BME280;62754;48.252;11.654;2022-09-09T00:17:02;95942.22;;;13.84;81.64
74270;BME280;62754;48.252;11.654;2022-09-09T00:19:48;95937.63;;;13.78;82.19
74270;BME280;62754;48.252;11.654;2022-09-09T00:22:16;95930.53;;;13.80;81.81
74270;BME280;62754;48.252;11.654;2022-09-09T00:27:31;95932.16;;;13.81;81.85
74270;BME280;62754;48.252;11.654;2022-09-09T00:32:40;95928.66;;;13.73;82.21
74270;BME280;62754;48.252;11.654;2022-09-09T00:37:46;95930.97;;;13.76;82.48
74270;BME280;62754;48.252;11.654;2022-09-09T00:40:23;95929.41;;;13.83;82.22
74270;BME280;62754;48.252;11.654;2022-09-09T00:42:58;95934.75;;;13.81;82.37
74270;BME280;62754;48.252;11.654;2022-09-09T00:51:30;95932.59;;;13.77;82.84
74270;BME280;62754;48.252;11.654;2022-09-09T00:57:31;95937.25;;;13.91;82.36
74270;BME280;62754;48.252;11.654;2022-09-09T01:02:27;95933.19;;;13.89;81.83
74270;BME280;62754;48.252;11.654;2022-09-09T01:04:53;95924.31;;;13.91;81.65
74270;BME280;62754;48.252;11.654;2022-09-09T01:07:19;95928.84;;;13.89;81.71
74270;BME280;62754;48.252;11.654;2022-09-09T01:09:51;95937.34;;;13.81;81.96
74270;BME280;62754;48.252;11.654;2022-09-09T01:12:33;95931.63;;;13.78;82.30
74270;BME280;62754;48.252;11.654;2022-09-09T01:15:10;95916.97;;;13.69;82.63
74270;BME280;62754;48.252;11.654;2022-09-09T01:21:02;95925.94;;;13.74;82.36
74270;BME280;62754;48.252;11.654;2022-09-09T01:28:52;95929.88;;;13.51;83.66
74270;BME280;62754;48.252;11.654;2022-09-09T01:31:22;95932.75;;;13.48;83.76
74270;BME280;62754;48.252;11.654;2022-09-09T01:33:49;95925.66;;;13.50;83.53
74270;BME280;62754;48.252;11.654;2022-09-09T01:36:24;95933.00;;;13.55;83.22
74270;BME280;62754;48.252;11.654;2022-09-09T01:38:50;95932.28;;;13.62;82.98
74270;BME280;62754;48.252;11.654;2022-09-09T01:41:16;95939.06;;;13.63;82.81
74270;BME280;62754;48.252;11.654;2022-09-09T01:43:42;95932.81;;;13.66;82.78
74270;BME280;62754;48.252;11.654;2022-09-09T01:46:09;95932.06;;;13.73;82.79
74270;BME280;62754;48.252;11.654;2022-09-09T01:48:36;95935.47;;;13.74;82.20
74270;BME280;62754;48.252;11.654;2022-09-09T01:51:02;95934.22;;;13.78;82.16
74270;BME280;62754;48.252;11.654;2022-09-09T01:53:28;95930.97;;;13.76;82.04
74270;BME280;62754;48.252;11.654;2022-09-09T01:56:22;95931.34;;;13.81;81.94
74270;BME280;62754;48.252;11.654;2022-09-09T02:03:51;95936.22;;;13.84;81.20
74270;BME280;62754;48.252;11.654;2022-09-09T02:06:36;95935.41;;;13.83;81.22
74270;BME280;62754;48.252;11.654;2022-09-09T02:09:07;95945.25;;;13.80;81.33
74270;BME280;62754;48.252;11.654;2022-09-09T02:11:36;95936.28;;;13.74;81.36
74270;BME280;62754;48.252;11.654;2022-09-09T02:14:16;95943.38;;;13.72;81.48
74270;BME280;62754;48.252;11.654;2022-09-09T02:16:49;95926.06;;;13.73;81.20
74270;BME280;62754;48.252;11.654;2022-09-09T02:19:26;95926.88;;;13.73;81.38
74270;BME280;62754;48.252;11.654;2022-09-09T02:21:55;95927.94;;;13.80;81.14
74270;BME280;62754;48.252;11.654;2022-09-09T02:24:22;95928.31;;;13.86;80.89
74270;BME280;62754;48.252;11.654;2022-09-09T02:26:51;95921.81;;;13.81;81.05
74270;BME280;62754;48.252;11.654;2022-09-09T02:29:25;95926.72;;;13.75;81.33
74270;BME280;62754;48.252;11.654;2022-09-09T02:31:56;95922.00;;;13.70;81.47
74270;BME280;62754;48.252;11.654;2022-09-09T02:34:24;95916.00;;;13.70;81.49
74270;BME280;62754;48.252;11.654;2022-09-09T02:36:53;95922.00;;;13.70;81.79
74270;BME280;62754;48.252;11.654;2022-09-09T02:39:20;95920.75;;;13.74;81.46
74270;BME280;62754;48.252;11.654;2022-09-09T02:41:46;95919.78;;;13.75;81.13
74270;BME280;62754;48.252;11.654;2022-09-09T02:44:14;95913.16;;;13.63;81.75
74270;BME280;62754;48.252;11.654;2022-09-09T02:49:31;95912.22;;;13.64;81.84
74270;BME280;62754;48.252;11.654;2022-09-09T02:52:06;95906.69;;;13.77;81.24
74270;BME280;62754;48.252;11.654;2022-09-09T02:54:34;95905.13;;;13.66;82.00
74270;BME280;62754;48.252;11.654;2022-09-09T02:59:29;95915.97;;;13.52;82.30
74270;BME280;62754;48.252;11.654;2022-09-09T03:01:55;95911.69;;;13.61;81.94
74270;BME280;62754;48.252;11.654;2022-09-09T03:04:20;95903.81;;;13.62;81.79
74270;BME280;62754;48.252;11.654;2022-09-09T03:06:46;95908.16;;;13.62;81.98
74270;BME280;62754;48.252;11.654;2022-09-09T03:09:12;95911.69;;;13.61;81.99
74270;BME280;62754;48.252;11.654;2022-09-09T03:11:38;95910.06;;;13.60;81.95
74270;BME280;62754;48.252;11.654;2022-09-09T03:14:04;95907.72;;;13.66;81.75
74270;BME280;62754;48.252;11.654;2022-09-09T03:16:30;95905.28;;;13.65;81.86
74270;BME280;62754;48.252;11.654;2022-09-09T03:18:56;95903.94;;;13.61;82.19
74270;BME280;62754;48.252;11.654;2022-09-09T03:21:21;95904.69;;;13.71;81.65
74270;BME280;62754;48.252;11.654;2022-09-09T03:23:47;95906.00;;;13.75;81.54
74270;BME280;62754;48.252;11.654;2022-09-09T03:26:13;95909.59;;;13.74;81.67
74270;BME280;62754;48.252;11.654;2022-09-09T03:28:39;95903.28;;;13.76;81.61
74270;BME280;62754;48.252;11.654;2022-09-09T03:31:05;95906.00;;;13.75;81.52
74270;BME280;62754;48.252;11.654;2022-09-09T03:33:31;95907.94;;;13.73;81.38
74270;BME280;62754;48.252;11.654;2022-09-09T03:35:57;95905.97;;;13.67;81.56
74270;BME280;62754;48.252;11.654;2022-09-09T03:38:24;95899.78;;;13.68;81.69
74270;BME280;62754;48.252;11.654;2022-09-09T03:40:50;95893.66;;;13.69;81.64
74270;BME280;62754;48.252;11.654;2022-09-09T03:43:16;95891.16;;;13.77;81.32
74270;BME280;62754;48.252;11.654;2022-09-09T03:45:46;95897.69;;;13.81;81.31
74270;BME280;62754;48.252;11.654;2022-09-09T03:48:11;95895.47;;;13.86;81.01
74270;BME280;62754;48.252;11.654;2022-09-09T03:50:37;95891.28;;;13.75;81.63
74270;BME280;62754;48.252;11.654;2022-09-09T03:53:03;95892.94;;;13.94;80.71
74270;BME280;62754;48.252;11.654;2022-09-09T03:55:29;95893.09;;;13.93;80.77
74270;BME280;62754;48.252;11.654;2022-09-09T03:57:54;95895.50;;;13.94;80.85
74270;BME280;62754;48.252;11.654;2022-09-09T04:00:20;95893.16;;;13.83;81.10
74270;BME280;62754;48.252;11.654;2022-09-09T04:02:46;95885.38;;;13.83;80.91
74270;BME280;62754;48.252;11.654;2022-09-09T04:05:12;95884.28;;;13.86;80.84
74270;BME280;62754;48.252;11.654;2022-09-09T04:07:37;95885.09;;;13.86;80.99
74270;BME280;62754;48.252;11.654;2022-09-09T04:10:03;95884.56;;;13.82;81.30
74270;BME280;62754;48.252;11.654;2022-09-09T04:12:29;95887.00;;;13.84;81.23
74270;BME280;62754;48.252;11.654;2022-09-09T04:14:55;95893.41;;;13.90;81.09
74270;BME280;62754;48.252;11.654;2022-09-09T04:17:21;95886.44;;;13.90;81.08
74270;BME280;62754;48.252;11.654;2022-09-09T04:19:47;95887.69;;;13.86;81.25
74270;BME280;62754;48.252;11.654;2022-09-09T04:22:12;95885.84;;;13.96;81.05
74270;BME280;62754;48.252;11.654;2022-09-09T04:24:38;95892.28;;;13.92;81.38
74270;BME280;62754;48.252;11.654;2022-09-09T04:27:04;95881.91;;;13.92;81.23
74270;BME280;62754;48.252;11.654;2022-09-09T04:29:29;95881.47;;;13.97;81.37
74270;BME280;62754;48.252;11.654;2022-09-09T04:31:55;95884.13;;;14.05;80.93
74270;BME280;62754;48.252;11.654;2022-09-09T04:34:21;95886.94;;;14.11;80.66
74270;BME280;62754;48.252;11.654;2022-09-09T04:36:47;95880.63;;;14.14;80.50
74270;BME280;62754;48.252;11.654;2022-09-09T04:39:12;95873.84;;;14.13;80.97
74270;BME280;62754;48.252;11.654;2022-09-09T04:41:38;95874.94;;;14.10;80.74
74270;BME280;62754;48.252;11.654;2022-09-09T04:44:04;95875.94;;;14.09;80.92
74270;BME280;62754;48.252;11.654;2022-09-09T04:46:30;95867.09;;;14.02;81.08
74270;BME280;62754;48.252;11.654;2022-09-09T04:48:55;95872.00;;;14.05;80.86
74270;BME280;62754;48.252;11.654;2022-09-09T04:51:21;95867.25;;;14.01;81.19
74270;BME280;62754;48.252;11.654;2022-09-09T04:53:47;95875.38;;;14.06;80.91
74270;BME280;62754;48.252;11.654;2022-09-09T04:56:14;95879.72;;;13.97;81.60
74270;BME280;62754;48.252;11.654;2022-09-09T04:58:41;95879.84;;;13.96;81.61
74270;BME280;62754;48.252;11.654;2022-09-09T05:03:40;95880.88;;;13.85;82.00
74270;BME280;62754;48.252;11.654;2022-09-09T05:06:10;95881.78;;;13.94;82.03
74270;BME280;62754;48.252;11.654;2022-09-09T05:08:38;95875.78;;;13.93;81.93
74270;BME280;62754;48.252;11.654;2022-09-09T05:11:33;95878.88;;;13.79;82.50
74270;BME280;62754;48.252;11.654;2022-09-09T05:13:59;95878.13;;;13.69;83.26
74270;BME280;62754;48.252;11.654;2022-09-09T05:16:25;95882.19;;;13.71;83.02
74270;BME280;62754;48.252;11.654;2022-09-09T05:18:51;95883.19;;;13.70;83.36
74270;BME280;62754;48.252;11.654;2022-09-09T05:21:18;95884.50;;;13.74;83.21
74270;BME280;62754;48.252;11.654;2022-09-09T05:23:45;95889.22;;;13.79;82.90
74270;BME280;62754;48.252;11.654;2022-09-09T05:26:19;95894.22;;;13.90;82.59
74270;BME280;62754;48.252;11.654;2022-09-09T05:28:46;95902.63;;;13.92;82.72
74270;BME280;62754;48.252;11.654;2022-09-09T05:31:12;95905.59;;;13.97;82.45
74270;BME280;62754;48.252;11.654;2022-09-09T05:33:40;95909.53;;;14.01;82.33
74270;BME280;62754;48.252;11.654;2022-09-09T05:36:14;95905.38;;;14.08;82.00
74270;BME280;62754;48.252;11.654;2022-09-09T05:38:40;95897.66;;;13.99;82.54
74270;BME280;62754;48.252;11.654;2022-09-09T05:41:07;95901.28;;;14.06;82.47
74270;BME280;62754;48.252;11.654;2022-09-09T05:43:33;95901.53;;;14.12;82.25
74270;BME280;62754;48.252;11.654;2022-09-09T05:48:29;95905.66;;;14.23;81.83
74270;BME280;62754;48.252;11.654;2022-09-09T05:50:54;95901.66;;;14.28;81.67
74270;BME280;62754;48.252;11.654;2022-09-09T05:53:20;95905.34;;;14.26;81.64
74270;BME280;62754;48.252;11.654;2022-09-09T05:55:46;95900.47;;;14.23;81.93
74270;BME280;62754;48.252;11.654;2022-09-09T05:58:12;95904.53;;;14.25;81.57
74270;BME280;62754;48.252;11.654;2022-09-09T06:00:37;95903.28;;;14.29;81.35
74270;BME280;62754;48.252;11.654;2022-09-09T06:03:03;95902.94;;;14.24;81.60
74270;BME280;62754;48.252;11.654;2022-09-09T06:05:29;95905.88;;;14.29;81.42
74270;BME280;62754;48.252;11.654;2022-09-09T06:07:55;95902.72;;;14.36;81.20
74270;BME280;62754;48.252;11.654;2022-09-09T06:10:21;95906.03;;;14.46;81.00
74270;BME280;62754;48.252;11.654;2022-09-09T06:12:47;95903.63;;;14.52;80.57
74270;BME280;62754;48.252;11.654;2022-09-09T06:15:12;95911.13;;;14.55;80.47
74270;BME280;62754;48.252;11.654;2022-09-09T06:17:38;95911.78;;;14.57;80.55
74270;BME280;62754;48.252;11.654;2022-09-09T06:20:05;95908.53;;;14.55;80.60
74270;BME280;62754;48.252;11.654;2022-09-09T06:22:30;95910.72;;;14.68;80.27
74270;BME280;62754;48.252;11.654;2022-09-09T06:24:56;95903.31;;;14.73;79.94
74270;BME280;62754;48.252;11.654;2022-09-09T06:27:22;95908.84;;;14.78;79.65
74270;BME280;62754;48.252;11.654;2022-09-09T06:29:48;95907.66;;;14.72;79.83
74270;BME280;62754;48.252;11.654;2022-09-09T06:32:13;95900.06;;;14.71;80.08
74270;BME280;62754;48.252;11.654;2022-09-09T06:34:39;95905.00;;;14.82;80.30
74270;BME280;62754;48.252;11.654;2022-09-09T06:37:05;95903.41;;;14.89;79.74
74270;BME280;62754;48.252;11.654;2022-09-09T06:39:31;95900.84;;;14.97;79.50
74270;BME280;62754;48.252;11.654;2022-09-09T06:41:56;95906.22;;;15.04;78.80
74270;BME280;62754;48.252;11.654;2022-09-09T06:44:22;95912.13;;;15.14;78.43
74270;BME280;62754;48.252;11.654;2022-09-09T06:46:48;95908.69;;;15.05;78.44
74270;BME280;62754;48.252;11.654;2022-09-09T06:49:13;95907.09;;;15.12;78.37
74270;BME280;62754;48.252;11.654;2022-09-09T06:51:39;95913.31;;;15.27;77.60
74270;BME280;62754;48.252;11.654;2022-09-09T06:54:05;95919.75;;;15.15;77.76
74270;BME280;62754;48.252;11.654;2022-09-09T06:56:34;95924.31;;;15.21;77.82
74270;BME280;62754;48.252;11.654;2022-09-09T06:59:05;95913.19;;;15.29;77.20
74270;BME280;62754;48.252;11.654;2022-09-09T07:01:38;95921.09;;;15.27;77.06
74270;BME280;62754;48.252;11.654;2022-09-09T07:04:04;95916.59;;;15.38;76.58
74270;BME280;62754;48.252;11.654;2022-09-09T07:06:32;95922.97;;;15.43;76.28
74270;BME280;62754;48.252;11.654;2022-09-09T07:09:03;95925.81;;;15.58;75.88
74270;BME280;62754;48.252;11.654;2022-09-09T07:11:33;95937.97;;;15.57;76.28
74270;BME280;62754;48.252;11.654;2022-09-09T07:14:00;95945.47;;;15.68;75.54
74270;BME280;62754;48.252;11.654;2022-09-09T07:16:26;95966.47;;;15.83;74.76
74270;BME280;62754;48.252;11.654;2022-09-09T07:18:53;95986.91;;;15.78;75.01
74270;BME280;62754;48.252;11.654;2022-09-09T07:21:18;96000.56;;;15.88;75.91
74270;BME280;62754;48.252;11.654;2022-09-09T07:23:44;96008.19;;;15.82;77.03
74270;BME280;62754;48.252;11.654;2022-09-09T07:26:13;95998.31;;;15.85;77.01
74270;BME280;62754;48.252;11.654;2022-09-09T07:28:39;95993.09;;;15.85;77.53
74270;BME280;62754;48.252;11.654;2022-09-09T07:31:05;95994.81;;;15.68;78.12
74270;BME280;62754;48.252;11.654;2022-09-09T07:33:33;96004.88;;;15.63;78.77
74270;BME280;62754;48.252;11.654;2022-09-09T07:36:07;96004.66;;;15.57;78.30
74270;BME280;62754;48.252;11.654;2022-09-09T07:38:47;96000.47;;;15.56;79.13
74270;BME280;62754;48.252;11.654;2022-09-09T07:41:16;96004.16;;;15.53;79.88
74270;BME280;62754;48.252;11.654;2022-09-09T07:43:43;96007.47;;;15.38;81.62
74270;BME280;62754;48.252;11.654;2022-09-09T07:46:11;96006.16;;;15.34;81.03
74270;BME280;62754;48.252;11.654;2022-09-09T07:48:38;95998.97;;;15.27;83.01
74270;BME280;62754;48.252;11.654;2022-09-09T07:51:10;96005.22;;;15.43;81.96
74270;BME280;62754;48.252;11.654;2022-09-09T07:53:36;96004.91;;;15.46;81.74
74270;BME280;62754;48.252;11.654;2022-09-09T07:56:06;96014.91;;;15.58;81.51
74270;BME280;62754;48.252;11.654;2022-09-09T07:58:33;96009.09;;;15.64;81.01
74270;BME280;62754;48.252;11.654;2022-09-09T08:00:59;96008.97;;;15.74;80.50
74270;BME280;62754;48.252;11.654;2022-09-09T08:03:24;96015.50;;;15.78;80.72
74270;BME280;62754;48.252;11.654;2022-09-09T08:05:50;96002.47;;;15.70;81.57
74270;BME280;62754;48.252;11.654;2022-09-09T08:08:16;96007.09;;;15.92;80.50
74270;BME280;62754;48.252;11.654;2022-09-09T08:10:42;96002.75;;;16.09;81.22
74270;BME280;62754;48.252;11.654;2022-09-09T08:13:09;96011.69;;;16.14;81.43
74270;BME280;62754;48.252;11.654;2022-09-09T08:15:34;96008.50;;;16.29;81.29
74270;BME280;62754;48.252;11.654;2022-09-09T08:18:00;96014.22;;;16.40;79.24
74270;BME280;62754;48.252;11.654;2022-09-09T08:20:26;96019.72;;;16.45;78.98
74270;BME280;62754;48.252;11.654;2022-09-09T08:22:51;96023.28;;;16.28;78.82
74270;BME280;62754;48.252;11.654;2022-09-09T08:25:17;96027.84;;;16.34;78.67
74270;BME280;62754;48.252;11.654;2022-09-09T08:27:43;96028.00;;;16.25;80.49
74270;BME280;62754;48.252;11.654;2022-09-09T08:30:09;96039.03;;;16.27;79.69
74270;BME280;62754;48.252;11.654;2022-09-09T08:32:35;96044.56;;;16.24;80.50
74270;BME280;62754;48.252;11.654;2022-09-09T08:35:01;96046.81;;;16.18;79.22
74270;BME280;62754;48.252;11.654;2022-09-09T08:37:27;96040.25;;;16.06;78.83
74270;BME280;62754;48.252;11.654;2022-09-09T08:39:52;96040.47;;;16.13;80.24
74270;BME280;62754;48.252;11.654;2022-09-09T08:42:41;96047.88;;;16.00;80.50
74270;BME280;62754;48.252;11.654;2022-09-09T08:45:21;96050.31;;;15.93;81.97
74270;BME280;62754;48.252;11.654;2022-09-09T08:50:44;96042.16;;;15.88;81.64
74270;BME280;62754;48.252;11.654;2022-09-09T08:53:24;96046.81;;;16.27;80.41
74270;BME280;62754;48.252;11.654;2022-09-09T08:55:58;96050.56;;;16.24;80.72
74270;BME280;62754;48.252;11.654;2022-09-09T08:58:27;96048.47;;;16.28;81.16
74270;BME280;62754;48.252;11.654;2022-09-09T09:11:39;96044.34;;;16.59;78.16
74270;BME280;62754;48.252;11.654;2022-09-09T09:14:12;96026.56;;;16.46;78.71
74270;BME280;62754;48.252;11.654;2022-09-09T09:17:03;96025.94;;;16.52;78.01
74270;BME280;62754;48.252;11.654;2022-09-09T09:19:32;96015.72;;;16.59;78.17
74270;BME280;62754;48.252;11.654;2022-09-09T09:24:42;96025.47;;;16.89;76.86
74270;BME280;62754;48.252;11.654;2022-09-09T09:27:26;96030.53;;;16.75;75.97
74270;BME280;62754;48.252;11.654;2022-09-09T09:29:56;96037.78;;;16.55;77.99
74270;BME280;62754;48.252;11.654;2022-09-09T09:32:24;96035.72;;;16.66;78.06
74270;BME280;62754;48.252;11.654;2022-09-09T09:34:55;96027.09;;;16.74;77.80
74270;BME280;62754;48.252;11.654;2022-09-09T09:37:34;96031.78;;;17.27;74.59
74270;BME280;62754;48.252;11.654;2022-09-09T09:42:35;96033.22;;;17.62;74.16
74270;BME280;62754;48.252;11.654;2022-09-09T09:45:50;96042.31;;;17.66;73.19
74270;BME280;62754;48.252;11.654;2022-09-09T09:48:02;96028.44;;;17.74;74.23
74270;BME280;62754;48.252;11.654;2022-09-09T09:50:29;96038.06;;;17.73;74.77
74270;BME280;62754;48.252;11.654;2022-09-09T09:53:01;96037.25;;;17.73;74.45
74270;BME280;62754;48.252;11.654;2022-09-09T09:55:28;96041.31;;;17.83;74.57
74270;BME280;62754;48.252;11.654;2022-09-09T09:58:04;96034.47;;;17.74;75.47
74270;BME280;62754;48.252;11.654;2022-09-09T10:00:30;96039.69;;;17.74;73.05
74270;BME280;62754;48.252;11.654;2022-09-09T10:02:56;96043.72;;;17.85;75.44
74270;BME280;62754;48.252;11.654;2022-09-09T10:05:24;96035.31;;;18.14;72.24
74270;BME280;62754;48.252;11.654;2022-09-09T10:08:03;96048.41;;;17.97;70.86
74270;BME280;62754;48.252;11.654;2022-09-09T10:18:25;96038.41;;;17.70;74.37
74270;BME280;62754;48.252;11.654;2022-09-09T10:38:13;96042.97;;;17.76;74.84
74270;BME280;62754;48.252;11.654;2022-09-09T10:46:09;96033.25;;;17.93;73.51
74270;BME280;62754;48.252;11.654;2022-09-09T10:56:34;96039.97;;;18.57;70.62
74270;BME280;62754;48.252;11.654;2022-09-09T10:59:14;96038.28;;;18.87;72.85
74270;BME280;62754;48.252;11.654;2022-09-09T11:01:59;96040.34;;;19.14;71.75
74270;BME280;62754;48.252;11.654;2022-09-09T11:04:33;96041.75;;;19.02;70.45
74270;BME280;62754;48.252;11.654;2022-09-09T11:07:08;96042.38;;;19.04;69.42
74270;BME280;62754;48.252;11.654;2022-09-09T11:09:41;96033.56;;;19.05;69.44
74270;BME280;62754;48.252;11.654;2022-09-09T11:12:13;96034.47;;;19.12;69.17
74270;BME280;62754;48.252;11.654;2022-09-09T11:14:48;96033.75;;;19.03;69.32
74270;BME280;62754;48.252;11.654;2022-09-09T11:17:20;96028.63;;;19.10;69.47
74270;BME280;62754;48.252;11.654;2022-09-09T11:19:47;96023.97;;;19.20;66.62
74270;BME280;62754;48.252;11.654;2022-09-09T11:24:52;96031.03;;;19.34;64.70
74270;BME280;62754;48.252;11.654;2022-09-09T11:27:26;96028.16;;;20.03;62.71
74270;BME280;62754;48.252;11.654;2022-09-09T11:30:22;96029.81;;;20.75;59.42
74270;BME280;62754;48.252;11.654;2022-09-09T11:41:08;96012.84;;;22.17;52.22
74270;BME280;62754;48.252;11.654;2022-09-09T11:43:41;96012.03;;;22.84;49.84
74270;BME280;62754;48.252;11.654;2022-09-09T11:46:08;96017.72;;;22.74;51.09
74270;BME280;62754;48.252;11.654;2022-09-09T11:48:37;96010.22;;;22.17;52.97
74270;BME280;62754;48.252;11.654;2022-09-09T11:51:09;96004.78;;;22.12;52.80
74270;BME280;62754;48.252;11.654;2022-09-09T11:53:47;96012.31;;;21.25;53.12
74270;BME280;62754;48.252;11.654;2022-09-09T11:56:24;96019.16;;;21.05;54.58
74270;BME280;62754;48.252;11.654;2022-09-09T11:58:56;96013.53;;;20.08;56.84
74270;BME280;62754;48.252;11.654;2022-09-09T12:01:41;96020.97;;;19.90;58.56
74270;BME280;62754;48.252;11.654;2022-09-09T12:04:26;96016.72;;;19.74;58.32
74270;BME280;62754;48.252;11.654;2022-09-09T12:06:59;96024.88;;;19.50;59.78
74270;BME280;62754;48.252;11.654;2022-09-09T12:14:53;96023.13;;;19.42;60.28
74270;BME280;62754;48.252;11.654;2022-09-09T12:17:22;96020.53;;;19.57;60.17
74270;BME280;62754;48.252;11.654;2022-09-09T12:20:13;96020.84;;;19.39;60.92
74270;BME280;62754;48.252;11.654;2022-09-09T12:25:09;96027.25;;;19.37;60.71
74270;BME280;62754;48.252;11.654;2022-09-09T12:30:24;96014.78;;;19.39;60.29
74270;BME280;62754;48.252;11.654;2022-09-09T12:33:10;96010.13;;;19.34;60.58
74270;BME280;62754;48.252;11.654;2022-09-09T12:35:37;96013.41;;;19.51;59.84
74270;BME280;62754;48.252;11.654;2022-09-09T12:38:04;96007.69;;;19.33;59.90
74270;BME280;62754;48.252;11.654;2022-09-09T12:40:33;96002.59;;;19.17;59.17
74270;BME280;62754;48.252;11.654;2022-09-09T12:42:59;96002.53;;;19.10;59.97
74270;BME280;62754;48.252;11.654;2022-09-09T12:45:28;95997.28;;;19.10;59.63
74270;BME280;62754;48.252;11.654;2022-09-09T12:48:08;95997.69;;;19.36;58.44
74270;BME280;62754;48.252;11.654;2022-09-09T12:50:37;95999.63;;;19.57;58.12
74270;BME280;62754;48.252;11.654;2022-09-09T12:53:09;95991.72;;;20.01;55.50
74270;BME280;62754;48.252;11.654;2022-09-09T12:55:38;95987.34;;;21.29;52.26
74270;BME280;62754;48.252;11.654;2022-09-09T12:58:05;95987.06;;;22.27;49.35
74270;BME280;62754;48.252;11.654;2022-09-09T13:00:33;95999.88;;;21.96;51.80
74270;BME280;62754;48.252;11.654;2022-09-09T13:03:02;95988.66;;;21.74;53.21
74270;BME280;62754;48.252;11.654;2022-09-09T13:05:35;95985.25;;;21.18;52.90
74270;BME280;62754;48.252;11.654;2022-09-09T13:08:05;95985.63;;;20.66;55.84
74270;BME280;62754;48.252;11.654;2022-09-09T13:10:43;95978.41;;;20.74;54.97
74270;BME280;62754;48.252;11.654;2022-09-09T13:13:17;95977.13;;;20.42;54.82
74270;BME280;62754;48.252;11.654;2022-09-09T13:15:53;95957.94;;;20.21;55.55
74270;BME280;62754;48.252;11.654;2022-09-09T13:18:45;95965.78;;;20.21;55.81
74270;BME280;62754;48.252;11.654;2022-09-09T13:21:11;95963.28;;;20.13;57.01
74270;BME280;62754;48.252;11.654;2022-09-09T13:23:37;95965.28;;;20.11;57.22
74270;BME280;62754;48.252;11.654;2022-09-09T13:26:20;95951.81;;;19.92;57.08
74270;BME280;62754;48.252;11.654;2022-09-09T13:28:47;95948.00;;;19.95;56.97
74270;BME280;62754;48.252;11.654;2022-09-09T13:31:29;95947.03;;;19.96;58.59
74270;BME280;62754;48.252;11.654;2022-09-09T13:33:55;95946.03;;;19.82;56.66
74270;BME280;62754;48.252;11.654;2022-09-09T13:36:32;95941.53;;;20.12;56.40
74270;BME280;62754;48.252;11.654;2022-09-09T13:39:00;95946.09;;;20.61;54.82
74270;BME280;62754;48.252;11.654;2022-09-09T13:41:33;95934.22;;;21.14;53.33
74270;BME280;62754;48.252;11.654;2022-09-09T13:44:00;95923.19;;;21.18;54.18
74270;BME280;62754;48.252;11.654;2022-09-09T13:46:34;95933.97;;;20.81;54.38
74270;BME280;62754;48.252;11.654;2022-09-09T13:49:20;95934.19;;;20.37;55.10
74270;BME280;62754;48.252;11.654;2022-09-09T13:51:49;95927.72;;;20.33;56.27
74270;BME280;62754;48.252;11.654;2022-09-09T13:54:17;95930.72;;;20.15;56.93
74270;BME280;62754;48.252;11.654;2022-09-09T13:56:43;95932.91;;;20.12;56.60
74270;BME280;62754;48.252;11.654;2022-09-09T13:59:17;95920.50;;;20.20;56.72
74270;BME280;62754;48.252;11.654;2022-09-09T14:01:43;95919.78;;;20.26;56.96
74270;BME280;62754;48.252;11.654;2022-09-09T14:04:09;95922.56;;;20.04;57.75
74270;BME280;62754;48.252;11.654;2022-09-09T14:06:35;95928.22;;;20.07;56.93
74270;BME280;62754;48.252;11.654;2022-09-09T14:09:01;95918.28;;;19.81;57.77
74270;BME280;62754;48.252;11.654;2022-09-09T14:11:27;95910.03;;;19.63;57.56
74270;BME280;62754;48.252;11.654;2022-09-09T14:13:53;95919.25;;;19.44;59.67
74270;BME280;62754;48.252;11.654;2022-09-09T14:16:19;95922.63;;;19.16;58.63
74270;BME280;62754;48.252;11.654;2022-09-09T14:18:45;95921.28;;;19.05;59.85
74270;BME280;62754;48.252;11.654;2022-09-09T14:21:11;95930.38;;;18.94;59.38
74270;BME280;62754;48.252;11.654;2022-09-09T14:23:37;95931.22;;;18.72;60.79
74270;BME280;62754;48.252;11.654;2022-09-09T14:26:07;95932.34;;;18.55;60.93
74270;BME280;62754;48.252;11.654;2022-09-09T14:28:33;95938.88;;;18.51;61.42
74270;BME280;62754;48.252;11.654;2022-09-09T14:31:01;95943.94;;;18.52;61.24
74270;BME280;62754;48.252;11.654;2022-09-09T14:33:27;95932.56;;;18.45;61.55
74270;BME280;62754;48.252;11.654;2022-09-09T14:36:01;95937.31;;;18.42;62.19
74270;BME280;62754;48.252;11.654;2022-09-09T14:38:35;95937.94;;;18.44;62.51
74270;BME280;62754;48.252;11.654;2022-09-09T14:41:01;95939.34;;;18.54;61.88
74270;BME280;62754;48.252;11.654;2022-09-09T14:43:27;95946.66;;;18.59;60.60
74270;BME280;62754;48.252;11.654;2022-09-09T14:45:53;95945.06;;;18.50;61.27
74270;BME280;62754;48.252;11.654;2022-09-09T14:48:18;95957.97;;;18.51;61.68
74270;BME280;62754;48.252;11.654;2022-09-09T14:50:44;95951.00;;;18.44;61.82
74270;BME280;62754;48.252;11.654;2022-09-09T14:53:10;95954.06;;;18.47;62.18
74270;BME280;62754;48.252;11.654;2022-09-09T14:55:36;95962.47;;;18.35;62.24
74270;BME280;62754;48.252;11.654;2022-09-09T14:58:02;95959.16;;;18.41;61.94
74270;BME280;62754;48.252;11.654;2022-09-09T15:00:28;95960.03;;;18.33;61.79
74270;BME280;62754;48.252;11.654;2022-09-09T15:02:54;95956.78;;;18.31;62.32
74270;BME280;62754;48.252;11.654;2022-09-09T15:05:21;95963.09;;;18.14;63.02